Airfield :







YOU CAN JOIN US ON...

 
LOGIN :

Register | Disclaimer

   EN    FR    IT 

 









Legend :    VFR   Marginal VFR   IFR   Intensive IFR   Very Intensive IFR
Visi :
Ceiling :
>= 8 km
>= 3000ft
5 to 8 km
1000 to 3000 ft
1500m to 5 km
500 to 1000 ft
800 to 1500m
200 to 500 ft
< 800m
< 200 ft
Symbols :   Thunderstorms  Fog  Heavy snow  Heavy precipitations  Wind > 20 kt






- Airport Elevation : 172 ft
- IATA code : YYY


CYYY - Mont Joli

CURRENT METAR :
  • 240300Z 25011KT 30SM SCT070 11/08 A2958 RMK AC4 SLP021 DENSITY ALT 200FT

EXPIRED METARs :
  • 240200Z 25013KT 30SM BKN076 14/10 A2956 RMK AC6 SLP013 DENSITY ALT 600FT
  • 240100Z 24010G16KT 30SM OVC079 15/10 A2955 RMK AC8 SLP010 DENSITY ALT 600FT

TAF TAF CYYY
Valid from the 24 at 02:00 until the 24 at 14:00 UTC


240138Z 2402/2414 26010KT P6SM BKN080
TEMPO 2402/2411 BKN040
FM241300 26010KT P6SM SCT030 RMK NXT FCST BY 240800Z
CZUL FIR / North America



MET'MAP, your aeronautical weather chart ! - Copyright ORBIFLY December 2007 - Disclaimer

ORBIFLY MET'MAP TEAM :

Programming & Development : Alexandra Zaïnal
Concept & original design : Baudouin d'Aumeries
Assistance for programming : Marc-Olivier Méhu
Technical & hardware support : Manuel Goepfert

Contact : metmap@orbifly.com




SOURCES & CREDITS :

   NOAA